sensor_id;sensor_type;location;lat;lon;timestamp;temperature;humidity
17774;DHT22;9011;33.236;-97.118;2023-05-02T00:16:09;24.50;80.50
17774;DHT22;9011;33.236;-97.118;2023-05-02T00:18:58;24.40;80.30
17774;DHT22;9011;33.236;-97.118;2023-05-02T00:22:02;24.10;80.70
17774;DHT22;9011;33.236;-97.118;2023-05-02T00:28:39;23.50;82.90
17774;DHT22;9011;33.236;-97.118;2023-05-02T00:31:13;23.40;82.40
17774;DHT22;9011;33.236;-97.118;2023-05-02T00:34:02;23.30;83.30
17774;DHT22;9011;33.236;-97.118;2023-05-02T00:36:47;23.10;84.70
17774;DHT22;9011;33.236;-97.118;2023-05-02T00:39:26;23.00;85.60
17774;DHT22;9011;33.236;-97.118;2023-05-02T00:45:24;23.00;87.60
17774;DHT22;9011;33.236;-97.118;2023-05-02T00:48:21;22.90;86.90
17774;DHT22;9011;33.236;-97.118;2023-05-02T00:50:56;22.90;88.40
17774;DHT22;9011;33.236;-97.118;2023-05-02T00:53:26;22.50;89.40
17774;DHT22;9011;33.236;-97.118;2023-05-02T01:16:22;21.30;91.70
17774;DHT22;9011;33.236;-97.118;2023-05-02T01:20:13;21.30;91.90
17774;DHT22;9011;33.236;-97.118;2023-05-02T01:23:08;21.20;91.90
17774;DHT22;9011;33.236;-97.118;2023-05-02T01:26:25;20.90;92.00
17774;DHT22;9011;33.236;-97.118;2023-05-02T01:29:25;20.80;92.00
17774;DHT22;9011;33.236;-97.118;2023-05-02T01:43:24;20.20;93.20
17774;DHT22;9011;33.236;-97.118;2023-05-02T01:45:40;20.10;94.30
17774;DHT22;9011;33.236;-97.118;2023-05-02T01:48:11;20.00;94.10
17774;DHT22;9011;33.236;-97.118;2023-05-02T01:50:42;19.90;94.80
17774;DHT22;9011;33.236;-97.118;2023-05-02T01:53:12;19.60;93.80
17774;DHT22;9011;33.236;-97.118;2023-05-02T01:55:42;19.60;93.80
17774;DHT22;9011;33.236;-97.118;2023-05-02T01:58:11;19.50;94.30
17774;DHT22;9011;33.236;-97.118;2023-05-02T02:00:44;19.50;94.20
17774;DHT22;9011;33.236;-97.118;2023-05-02T02:03:13;19.30;94.40
17774;DHT22;9011;33.236;-97.118;2023-05-02T02:05:43;19.30;94.30
17774;DHT22;9011;33.236;-97.118;2023-05-02T02:08:12;19.20;94.90
17774;DHT22;9011;33.236;-97.118;2023-05-02T02:10:44;19.10;94.60
17774;DHT22;9011;33.236;-97.118;2023-05-02T02:13:17;19.00;94.80
17774;DHT22;9011;33.236;-97.118;2023-05-02T02:15:49;18.90;95.10
17774;DHT22;9011;33.236;-97.118;2023-05-02T02:18:20;18.80;95.80
17774;DHT22;9011;33.236;-97.118;2023-05-02T02:20:51;18.80;95.70
17774;DHT22;9011;33.236;-97.118;2023-05-02T02:23:22;18.70;95.20
17774;DHT22;9011;33.236;-97.118;2023-05-02T02:25:53;18.60;95.80
17774;DHT22;9011;33.236;-97.118;2023-05-02T02:28:23;18.50;96.40
17774;DHT22;9011;33.236;-97.118;2023-05-02T02:30:53;18.40;95.60
17774;DHT22;9011;33.236;-97.118;2023-05-02T02:33:22;18.20;96.30
17774;DHT22;9011;33.236;-97.118;2023-05-02T02:36:02;18.20;96.40
17774;DHT22;9011;33.236;-97.118;2023-05-02T02:38:41;18.10;97.00
17774;DHT22;9011;33.236;-97.118;2023-05-02T02:41:14;18.00;97.00
17774;DHT22;9011;33.236;-97.118;2023-05-02T02:43:50;18.00;97.10
17774;DHT22;9011;33.236;-97.118;2023-05-02T02:46:28;17.90;97.70
17774;DHT22;9011;33.236;-97.118;2023-05-02T02:49:12;17.60;97.60
17774;DHT22;9011;33.236;-97.118;2023-05-02T02:51:46;17.60;97.90
17774;DHT22;9011;33.236;-97.118;2023-05-02T02:54:21;17.60;97.50
17774;DHT22;9011;33.236;-97.118;2023-05-02T02:56:58;17.60;98.00
17774;DHT22;9011;33.236;-97.118;2023-05-02T02:59:31;17.50;98.50
17774;DHT22;9011;33.236;-97.118;2023-05-02T03:02:05;17.40;98.00
17774;DHT22;9011;33.236;-97.118;2023-05-02T03:04:39;17.30;98.20
17774;DHT22;9011;33.236;-97.118;2023-05-02T03:07:09;17.10;97.80
17774;DHT22;9011;33.236;-97.118;2023-05-02T03:09:41;17.00;97.80
17774;DHT22;9011;33.236;-97.118;2023-05-02T03:12:10;17.00;98.30
17774;DHT22;9011;33.236;-97.118;2023-05-02T03:14:38;16.90;98.80
17774;DHT22;9011;33.236;-97.118;2023-05-02T03:17:09;16.80;99.00
17774;DHT22;9011;33.236;-97.118;2023-05-02T03:19:37;16.70;99.00
17774;DHT22;9011;33.236;-97.118;2023-05-02T03:22:06;16.80;99.40
17774;DHT22;9011;33.236;-97.118;2023-05-02T03:24:34;16.80;99.30
17774;DHT22;9011;33.236;-97.118;2023-05-02T03:27:03;16.70;99.20
17774;DHT22;9011;33.236;-97.118;2023-05-02T03:29:31;16.70;99.60
17774;DHT22;9011;33.236;-97.118;2023-05-02T03:32:00;16.70;99.20
17774;DHT22;9011;33.236;-97.118;2023-05-02T03:34:30;16.70;99.60
17774;DHT22;9011;33.236;-97.118;2023-05-02T03:36:58;16.70;99.90
17774;DHT22;9011;33.236;-97.118;2023-05-02T03:39:26;16.60;99.90
17774;DHT22;9011;33.236;-97.118;2023-05-02T03:41:55;16.50;99.40
17774;DHT22;9011;33.236;-97.118;2023-05-02T03:44:23;16.50;99.90
17774;DHT22;9011;33.236;-97.118;2023-05-02T03:46:51;16.30;99.90
17774;DHT22;9011;33.236;-97.118;2023-05-02T03:49:20;16.30;99.90
17774;DHT22;9011;33.236;-97.118;2023-05-02T03:51:50;16.30;99.90
17774;DHT22;9011;33.236;-97.118;2023-05-02T03:54:19;16.30;99.90
17774;DHT22;9011;33.236;-97.118;2023-05-02T03:56:48;16.20;99.90
17774;DHT22;9011;33.236;-97.118;2023-05-02T03:59:16;16.20;99.90
17774;DHT22;9011;33.236;-97.118;2023-05-02T04:01:47;16.00;99.90
17774;DHT22;9011;33.236;-97.118;2023-05-02T04:04:16;15.80;99.90
17774;DHT22;9011;33.236;-97.118;2023-05-02T04:06:45;15.90;99.90
17774;DHT22;9011;33.236;-97.118;2023-05-02T04:09:15;15.80;99.90
17774;DHT22;9011;33.236;-97.118;2023-05-02T04:11:44;15.70;99.90
17774;DHT22;9011;33.236;-97.118;2023-05-02T04:14:13;15.60;99.90
17774;DHT22;9011;33.236;-97.118;2023-05-02T04:16:41;15.70;99.90
17774;DHT22;9011;33.236;-97.118;2023-05-02T04:19:09;15.60;99.90
17774;DHT22;9011;33.236;-97.118;2023-05-02T04:21:38;15.60;99.90
17774;DHT22;9011;33.236;-97.118;2023-05-02T04:24:07;15.60;99.90
17774;DHT22;9011;33.236;-97.118;2023-05-02T04:26:37;15.40;99.90
17774;DHT22;9011;33.236;-97.118;2023-05-02T04:29:06;15.40;99.90
17774;DHT22;9011;33.236;-97.118;2023-05-02T04:31:35;15.30;99.90
17774;DHT22;9011;33.236;-97.118;2023-05-02T04:34:03;15.10;99.90
17774;DHT22;9011;33.236;-97.118;2023-05-02T04:36:32;15.10;99.90
17774;DHT22;9011;33.236;-97.118;2023-05-02T04:39:00;15.20;99.90
17774;DHT22;9011;33.236;-97.118;2023-05-02T04:41:29;15.10;99.90
17774;DHT22;9011;33.236;-97.118;2023-05-02T04:43:59;15.10;99.90
17774;DHT22;9011;33.236;-97.118;2023-05-02T04:46:27;15.10;99.90
17774;DHT22;9011;33.236;-97.118;2023-05-02T04:48:55;15.00;99.90
17774;DHT22;9011;33.236;-97.118;2023-05-02T04:51:24;15.00;99.90
17774;DHT22;9011;33.236;-97.118;2023-05-02T04:53:53;14.90;99.90
17774;DHT22;9011;33.236;-97.118;2023-05-02T04:56:22;14.90;99.90
17774;DHT22;9011;33.236;-97.118;2023-05-02T04:58:50;14.90;99.90
17774;DHT22;9011;33.236;-97.118;2023-05-02T05:01:20;14.80;99.90
17774;DHT22;9011;33.236;-97.118;2023-05-02T05:03:49;14.80;99.90
17774;DHT22;9011;33.236;-97.118;2023-05-02T05:06:18;14.80;99.90
17774;DHT22;9011;33.236;-97.118;2023-05-02T05:08:46;14.80;99.90
17774;DHT22;9011;33.236;-97.118;2023-05-02T05:11:15;14.80;99.90
17774;DHT22;9011;33.236;-97.118;2023-05-02T05:13:43;14.70;99.90
17774;DHT22;9011;33.236;-97.118;2023-05-02T05:16:12;14.70;99.90
17774;DHT22;9011;33.236;-97.118;2023-05-02T05:18:41;14.70;99.90
17774;DHT22;9011;33.236;-97.118;2023-05-02T05:21:10;14.60;99.90
17774;DHT22;9011;33.236;-97.118;2023-05-02T05:23:38;14.50;99.90
17774;DHT22;9011;33.236;-97.118;2023-05-02T05:26:12;14.50;99.90
17774;DHT22;9011;33.236;-97.118;2023-05-02T05:28:41;14.40;99.90
17774;DHT22;9011;33.236;-97.118;2023-05-02T05:31:10;14.40;99.90
17774;DHT22;9011;33.236;-97.118;2023-05-02T05:33:40;14.50;99.90
17774;DHT22;9011;33.236;-97.118;2023-05-02T05:36:10;14.50;99.90
17774;DHT22;9011;33.236;-97.118;2023-05-02T05:38:40;14.40;99.90
17774;DHT22;9011;33.236;-97.118;2023-05-02T05:41:08;14.20;99.90
17774;DHT22;9011;33.236;-97.118;2023-05-02T05:43:36;14.20;99.90
17774;DHT22;9011;33.236;-97.118;2023-05-02T05:46:05;14.30;99.90
17774;DHT22;9011;33.236;-97.118;2023-05-02T05:48:33;14.30;99.90
17774;DHT22;9011;33.236;-97.118;2023-05-02T05:51:05;14.10;99.90
17774;DHT22;9011;33.236;-97.118;2023-05-02T05:53:33;14.20;99.90
17774;DHT22;9011;33.236;-97.118;2023-05-02T05:56:08;14.10;99.90
17774;DHT22;9011;33.236;-97.118;2023-05-02T05:58:36;13.90;99.90
17774;DHT22;9011;33.236;-97.118;2023-05-02T06:01:05;13.90;99.90
17774;DHT22;9011;33.236;-97.118;2023-05-02T06:03:35;13.80;99.90
17774;DHT22;9011;33.236;-97.118;2023-05-02T06:06:05;13.80;99.90
17774;DHT22;9011;33.236;-97.118;2023-05-02T06:08:33;13.80;99.90
17774;DHT22;9011;33.236;-97.118;2023-05-02T06:11:02;13.80;99.90
17774;DHT22;9011;33.236;-97.118;2023-05-02T06:13:30;13.90;99.90
17774;DHT22;9011;33.236;-97.118;2023-05-02T06:16:00;13.80;99.90
17774;DHT22;9011;33.236;-97.118;2023-05-02T06:18:28;13.80;99.90
17774;DHT22;9011;33.236;-97.118;2023-05-02T06:20:57;13.80;99.90
17774;DHT22;9011;33.236;-97.118;2023-05-02T06:23:31;13.80;99.90
17774;DHT22;9011;33.236;-97.118;2023-05-02T06:26:00;13.80;99.90
17774;DHT22;9011;33.236;-97.118;2023-05-02T06:28:28;13.70;99.90
17774;DHT22;9011;33.236;-97.118;2023-05-02T06:30:58;13.70;99.90
17774;DHT22;9011;33.236;-97.118;2023-05-02T06:33:27;13.70;99.90
17774;DHT22;9011;33.236;-97.118;2023-05-02T06:35:55;13.70;99.90
17774;DHT22;9011;33.236;-97.118;2023-05-02T06:38:24;13.70;99.90
17774;DHT22;9011;33.236;-97.118;2023-05-02T06:40:54;13.70;99.90
17774;DHT22;9011;33.236;-97.118;2023-05-02T06:43:22;13.70;99.90
17774;DHT22;9011;33.236;-97.118;2023-05-02T06:45:53;13.50;99.90
17774;DHT22;9011;33.236;-97.118;2023-05-02T06:48:22;13.40;99.90
17774;DHT22;9011;33.236;-97.118;2023-05-02T06:50:51;13.50;99.90
17774;DHT22;9011;33.236;-97.118;2023-05-02T06:53:20;13.50;99.90
17774;DHT22;9011;33.236;-97.118;2023-05-02T06:55:48;13.50;99.90
17774;DHT22;9011;33.236;-97.118;2023-05-02T06:58:19;13.20;99.90
17774;DHT22;9011;33.236;-97.118;2023-05-02T07:00:47;13.20;99.90
17774;DHT22;9011;33.236;-97.118;2023-05-02T07:03:15;13.20;99.90
17774;DHT22;9011;33.236;-97.118;2023-05-02T07:05:44;13.30;99.90
17774;DHT22;9011;33.236;-97.118;2023-05-02T07:08:12;13.30;99.90
17774;DHT22;9011;33.236;-97.118;2023-05-02T07:10:41;13.30;99.90
17774;DHT22;9011;33.236;-97.118;2023-05-02T07:13:09;13.30;99.90
17774;DHT22;9011;33.236;-97.118;2023-05-02T07:15:39;13.40;99.90
17774;DHT22;9011;33.236;-97.118;2023-05-02T07:18:08;13.30;99.90
17774;DHT22;9011;33.236;-97.118;2023-05-02T07:20:36;13.20;99.90
17774;DHT22;9011;33.236;-97.118;2023-05-02T07:23:07;13.20;99.90
17774;DHT22;9011;33.236;-97.118;2023-05-02T07:25:36;13.20;99.90
17774;DHT22;9011;33.236;-97.118;2023-05-02T07:28:05;13.20;99.90
17774;DHT22;9011;33.236;-97.118;2023-05-02T07:30:34;13.20;99.90
17774;DHT22;9011;33.236;-97.118;2023-05-02T07:33:04;13.10;99.90
17774;DHT22;9011;33.236;-97.118;2023-05-02T07:35:32;12.90;99.90
17774;DHT22;9011;33.236;-97.118;2023-05-02T07:38:01;12.80;99.90
17774;DHT22;9011;33.236;-97.118;2023-05-02T07:40:29;12.90;99.90
17774;DHT22;9011;33.236;-97.118;2023-05-02T07:42:59;12.90;99.90
17774;DHT22;9011;33.236;-97.118;2023-05-02T07:45:28;12.90;99.90
17774;DHT22;9011;33.236;-97.118;2023-05-02T07:47:56;12.90;99.90
17774;DHT22;9011;33.236;-97.118;2023-05-02T07:50:26;12.90;99.90
17774;DHT22;9011;33.236;-97.118;2023-05-02T07:52:55;12.90;99.90
17774;DHT22;9011;33.236;-97.118;2023-05-02T07:55:23;12.90;99.90
17774;DHT22;9011;33.236;-97.118;2023-05-02T07:57:53;12.90;99.90
17774;DHT22;9011;33.236;-97.118;2023-05-02T08:00:21;12.90;99.90
17774;DHT22;9011;33.236;-97.118;2023-05-02T08:02:50;12.90;99.90
17774;DHT22;9011;33.236;-97.118;2023-05-02T08:05:18;12.90;99.90
17774;DHT22;9011;33.236;-97.118;2023-05-02T08:07:48;12.90;99.90
17774;DHT22;9011;33.236;-97.118;2023-05-02T08:10:17;12.70;99.90
17774;DHT22;9011;33.236;-97.118;2023-05-02T08:12:45;12.50;99.90
17774;DHT22;9011;33.236;-97.118;2023-05-02T08:15:14;12.50;99.90
17774;DHT22;9011;33.236;-97.118;2023-05-02T08:17:42;12.60;99.90
17774;DHT22;9011;33.236;-97.118;2023-05-02T08:20:11;12.60;99.90
17774;DHT22;9011;33.236;-97.118;2023-05-02T08:22:39;12.60;99.90
17774;DHT22;9011;33.236;-97.118;2023-05-02T08:25:10;12.60;99.90
17774;DHT22;9011;33.236;-97.118;2023-05-02T08:27:38;12.60;99.90
17774;DHT22;9011;33.236;-97.118;2023-05-02T08:30:07;12.40;99.90
17774;DHT22;9011;33.236;-97.118;2023-05-02T08:32:36;12.30;99.90
17774;DHT22;9011;33.236;-97.118;2023-05-02T08:35:06;12.20;99.90
17774;DHT22;9011;33.236;-97.118;2023-05-02T08:37:34;12.20;99.90
17774;DHT22;9011;33.236;-97.118;2023-05-02T08:40:04;12.10;99.90
17774;DHT22;9011;33.236;-97.118;2023-05-02T08:42:34;12.00;99.90
17774;DHT22;9011;33.236;-97.118;2023-05-02T08:45:04;12.10;99.90
17774;DHT22;9011;33.236;-97.118;2023-05-02T08:47:33;12.10;99.90
17774;DHT22;9011;33.236;-97.118;2023-05-02T08:50:04;12.20;99.90
17774;DHT22;9011;33.236;-97.118;2023-05-02T08:52:34;12.10;99.90
17774;DHT22;9011;33.236;-97.118;2023-05-02T08:55:04;12.10;99.90
17774;DHT22;9011;33.236;-97.118;2023-05-02T08:57:34;12.10;99.90
17774;DHT22;9011;33.236;-97.118;2023-05-02T09:00:04;12.10;99.90
17774;DHT22;9011;33.236;-97.118;2023-05-02T09:02:47;12.10;99.90
17774;DHT22;9011;33.236;-97.118;2023-05-02T09:05:19;12.20;99.90
17774;DHT22;9011;33.236;-97.118;2023-05-02T09:07:49;12.10;99.90
17774;DHT22;9011;33.236;-97.118;2023-05-02T09:10:18;12.10;99.90
17774;DHT22;9011;33.236;-97.118;2023-05-02T09:12:49;12.10;99.90
17774;DHT22;9011;33.236;-97.118;2023-05-02T09:15:18;12.20;99.90
17774;DHT22;9011;33.236;-97.118;2023-05-02T09:17:48;12.10;99.90
17774;DHT22;9011;33.236;-97.118;2023-05-02T09:20:16;12.10;99.90
17774;DHT22;9011;33.236;-97.118;2023-05-02T09:22:48;11.90;99.90
17774;DHT22;9011;33.236;-97.118;2023-05-02T09:25:18;11.80;99.90
17774;DHT22;9011;33.236;-97.118;2023-05-02T09:27:53;11.90;99.90
17774;DHT22;9011;33.236;-97.118;2023-05-02T09:30:23;12.00;99.90
17774;DHT22;9011;33.236;-97.118;2023-05-02T09:32:52;12.10;99.90
17774;DHT22;9011;33.236;-97.118;2023-05-02T09:35:21;12.20;99.90
17774;DHT22;9011;33.236;-97.118;2023-05-02T09:37:52;12.20;99.90
17774;DHT22;9011;33.236;-97.118;2023-05-02T09:40:21;12.20;99.90
17774;DHT22;9011;33.236;-97.118;2023-05-02T09:42:52;12.10;99.90
17774;DHT22;9011;33.236;-97.118;2023-05-02T09:45:22;11.90;99.90
17774;DHT22;9011;33.236;-97.118;2023-05-02T09:47:51;11.70;99.90
17774;DHT22;9011;33.236;-97.118;2023-05-02T09:50:35;11.80;99.90
17774;DHT22;9011;33.236;-97.118;2023-05-02T09:53:05;11.90;99.90
17774;DHT22;9011;33.236;-97.118;2023-05-02T09:55:34;12.00;99.90
17774;DHT22;9011;33.236;-97.118;2023-05-02T09:58:04;12.00;99.90
17774;DHT22;9011;33.236;-97.118;2023-05-02T10:00:40;12.00;99.90
17774;DHT22;9011;33.236;-97.118;2023-05-02T10:03:10;12.10;99.90
17774;DHT22;9011;33.236;-97.118;2023-05-02T10:05:39;12.00;99.90
17774;DHT22;9011;33.236;-97.118;2023-05-02T10:08:08;12.00;99.90
17774;DHT22;9011;33.236;-97.118;2023-05-02T10:10:38;12.00;99.90
17774;DHT22;9011;33.236;-97.118;2023-05-02T10:13:09;12.10;99.90
17774;DHT22;9011;33.236;-97.118;2023-05-02T10:15:42;12.10;99.90
17774;DHT22;9011;33.236;-97.118;2023-05-02T10:18:13;12.00;99.90
17774;DHT22;9011;33.236;-97.118;2023-05-02T10:20:49;12.10;99.90
17774;DHT22;9011;33.236;-97.118;2023-05-02T10:23:21;12.10;99.90
17774;DHT22;9011;33.236;-97.118;2023-05-02T10:25:53;12.00;99.90
17774;DHT22;9011;33.236;-97.118;2023-05-02T10:28:25;11.80;99.90
17774;DHT22;9011;33.236;-97.118;2023-05-02T10:30:54;11.60;99.90
17774;DHT22;9011;33.236;-97.118;2023-05-02T10:33:23;11.70;99.90
17774;DHT22;9011;33.236;-97.118;2023-05-02T10:35:52;11.70;99.90
17774;DHT22;9011;33.236;-97.118;2023-05-02T10:38:21;11.80;99.90
17774;DHT22;9011;33.236;-97.118;2023-05-02T10:40:53;11.90;99.90
17774;DHT22;9011;33.236;-97.118;2023-05-02T10:43:33;11.90;99.90
17774;DHT22;9011;33.236;-97.118;2023-05-02T10:46:29;12.00;99.90
17774;DHT22;9011;33.236;-97.118;2023-05-02T10:49:02;12.00;99.90
17774;DHT22;9011;33.236;-97.118;2023-05-02T10:51:31;12.00;99.90
17774;DHT22;9011;33.236;-97.118;2023-05-02T10:54:22;12.00;99.90
17774;DHT22;9011;33.236;-97.118;2023-05-02T10:57:02;12.00;99.90
17774;DHT22;9011;33.236;-97.118;2023-05-02T10:59:36;12.00;99.90
17774;DHT22;9011;33.236;-97.118;2023-05-02T11:02:45;11.80;99.90
17774;DHT22;9011;33.236;-97.118;2023-05-02T11:05:00;11.90;99.90
17774;DHT22;9011;33.236;-97.118;2023-05-02T11:07:29;11.90;99.90
17774;DHT22;9011;33.236;-97.118;2023-05-02T11:10:25;11.80;99.90
17774;DHT22;9011;33.236;-97.118;2023-05-02T11:12:55;11.80;99.90
17774;DHT22;9011;33.236;-97.118;2023-05-02T11:15:55;11.60;99.90
17774;DHT22;9011;33.236;-97.118;2023-05-02T11:18:24;11.60;99.90
17774;DHT22;9011;33.236;-97.118;2023-05-02T11:20:52;11.60;99.90
17774;DHT22;9011;33.236;-97.118;2023-05-02T11:23:41;11.60;99.90
17774;DHT22;9011;33.236;-97.118;2023-05-02T11:26:20;11.40;99.90
17774;DHT22;9011;33.236;-97.118;2023-05-02T11:28:49;11.40;99.90
17774;DHT22;9011;33.236;-97.118;2023-05-02T11:31:55;11.30;99.90
17774;DHT22;9011;33.236;-97.118;2023-05-02T11:34:24;11.30;99.90
17774;DHT22;9011;33.236;-97.118;2023-05-02T11:36:53;11.10;99.90
17774;DHT22;9011;33.236;-97.118;2023-05-02T11:39:23;11.10;99.90
17774;DHT22;9011;33.236;-97.118;2023-05-02T11:42:05;11.00;99.90
17774;DHT22;9011;33.236;-97.118;2023-05-02T11:44:36;10.90;99.90
17774;DHT22;9011;33.236;-97.118;2023-05-02T11:47:21;11.00;99.90
17774;DHT22;9011;33.236;-97.118;2023-05-02T11:49:50;11.10;99.90
17774;DHT22;9011;33.236;-97.118;2023-05-02T11:52:18;11.00;99.90
17774;DHT22;9011;33.236;-97.118;2023-05-02T11:54:53;11.10;99.90
17774;DHT22;9011;33.236;-97.118;2023-05-02T11:57:22;11.10;99.90
17774;DHT22;9011;33.236;-97.118;2023-05-02T11:59:52;11.00;99.90
17774;DHT22;9011;33.236;-97.118;2023-05-02T12:02:35;10.90;99.90
17774;DHT22;9011;33.236;-97.118;2023-05-02T12:05:05;11.00;99.90
17774;DHT22;9011;33.236;-97.118;2023-05-02T12:07:37;11.10;99.90
17774;DHT22;9011;33.236;-97.118;2023-05-02T12:10:08;11.10;99.90
17774;DHT22;9011;33.236;-97.118;2023-05-02T12:12:42;11.10;99.90
17774;DHT22;9011;33.236;-97.118;2023-05-02T12:15:11;11.10;99.90
17774;DHT22;9011;33.236;-97.118;2023-05-02T12:17:45;11.20;99.90
17774;DHT22;9011;33.236;-97.118;2023-05-02T12:20:21;11.20;99.90
17774;DHT22;9011;33.236;-97.118;2023-05-02T12:22:53;11.30;99.90
17774;DHT22;9011;33.236;-97.118;2023-05-02T12:25:25;11.30;99.90
17774;DHT22;9011;33.236;-97.118;2023-05-02T12:27:59;11.40;99.90
17774;DHT22;9011;33.236;-97.118;2023-05-02T12:30:32;11.50;99.90
17774;DHT22;9011;33.236;-97.118;2023-05-02T12:33:04;11.60;99.90
17774;DHT22;9011;33.236;-97.118;2023-05-02T12:35:35;11.70;99.90
17774;DHT22;9011;33.236;-97.118;2023-05-02T12:45:01;12.10;99.90
17774;DHT22;9011;33.236;-97.118;2023-05-02T12:47:58;12.30;99.90
17774;DHT22;9011;33.236;-97.118;2023-05-02T12:54:32;12.60;99.90
17774;DHT22;9011;33.236;-97.118;2023-05-02T12:57:02;12.70;99.90
17774;DHT22;9011;33.236;-97.118;2023-05-02T13:00:02;12.90;99.90
17774;DHT22;9011;33.236;-97.118;2023-05-02T13:03:09;13.00;99.90
17774;DHT22;9011;33.236;-97.118;2023-05-02T13:05:49;13.20;99.90
17774;DHT22;9011;33.236;-97.118;2023-05-02T13:08:34;13.30;99.90
17774;DHT22;9011;33.236;-97.118;2023-05-02T13:11:24;13.50;99.90
17774;DHT22;9011;33.236;-97.118;2023-05-02T13:14:15;13.70;99.90
17774;DHT22;9011;33.236;-97.118;2023-05-02T13:16:46;13.80;99.90
17774;DHT22;9011;33.236;-97.118;2023-05-02T13:23:16;14.10;99.90
17774;DHT22;9011;33.236;-97.118;2023-05-02T13:25:45;14.30;99.90
17774;DHT22;9011;33.236;-97.118;2023-05-02T13:28:15;14.40;99.90
17774;DHT22;9011;33.236;-97.118;2023-05-02T13:30:44;14.60;99.90
17774;DHT22;9011;33.236;-97.118;2023-05-02T13:33:12;14.80;99.90
17774;DHT22;9011;33.236;-97.118;2023-05-02T13:35:41;14.90;99.90
17774;DHT22;9011;33.236;-97.118;2023-05-02T13:38:10;15.10;99.90
17774;DHT22;9011;33.236;-97.118;2023-05-02T13:40:38;15.30;99.90
17774;DHT22;9011;33.236;-97.118;2023-05-02T13:43:06;15.40;99.90
17774;DHT22;9011;33.236;-97.118;2023-05-02T13:45:36;15.60;99.90
17774;DHT22;9011;33.236;-97.118;2023-05-02T13:48:05;15.80;99.90
17774;DHT22;9011;33.236;-97.118;2023-05-02T13:50:36;16.00;99.90
17774;DHT22;9011;33.236;-97.118;2023-05-02T13:53:05;16.20;99.90
17774;DHT22;9011;33.236;-97.118;2023-05-02T13:55:40;16.30;99.90
17774;DHT22;9011;33.236;-97.118;2023-05-02T13:58:09;16.50;99.90
17774;DHT22;9011;33.236;-97.118;2023-05-02T14:00:39;16.80;99.90
17774;DHT22;9011;33.236;-97.118;2023-05-02T14:03:07;16.90;99.90
17774;DHT22;9011;33.236;-97.118;2023-05-02T14:05:37;17.00;99.90
17774;DHT22;9011;33.236;-97.118;2023-05-02T14:08:08;17.20;99.90
17774;DHT22;9011;33.236;-97.118;2023-05-02T14:10:37;17.40;99.90
17774;DHT22;9011;33.236;-97.118;2023-05-02T14:13:06;17.50;99.90
17774;DHT22;9011;33.236;-97.118;2023-05-02T14:15:34;17.70;99.90
17774;DHT22;9011;33.236;-97.118;2023-05-02T14:18:04;17.80;99.90
17774;DHT22;9011;33.236;-97.118;2023-05-02T14:20:33;18.00;99.90
17774;DHT22;9011;33.236;-97.118;2023-05-02T14:23:01;18.20;99.90
17774;DHT22;9011;33.236;-97.118;2023-05-02T14:25:30;18.30;99.90
17774;DHT22;9011;33.236;-97.118;2023-05-02T14:28:04;18.50;99.90
17774;DHT22;9011;33.236;-97.118;2023-05-02T14:30:32;18.60;99.90
17774;DHT22;9011;33.236;-97.118;2023-05-02T14:33:02;18.80;99.90
17774;DHT22;9011;33.236;-97.118;2023-05-02T14:35:31;18.90;99.90
17774;DHT22;9011;33.236;-97.118;2023-05-02T14:37:59;19.10;99.90
17774;DHT22;9011;33.236;-97.118;2023-05-02T14:40:29;19.20;99.90
17774;DHT22;9011;33.236;-97.118;2023-05-02T14:42:58;19.40;99.90
17774;DHT22;9011;33.236;-97.118;2023-05-02T14:45:26;19.60;99.90
17774;DHT22;9011;33.236;-97.118;2023-05-02T14:47:56;19.60;99.90
17774;DHT22;9011;33.236;-97.118;2023-05-02T14:50:26;19.70;99.90
17774;DHT22;9011;33.236;-97.118;2023-05-02T14:52:55;19.80;99.90
17774;DHT22;9011;33.236;-97.118;2023-05-02T14:55:26;19.90;99.90
17774;DHT22;9011;33.236;-97.118;2023-05-02T14:57:55;20.10;99.90
17774;DHT22;9011;33.236;-97.118;2023-05-02T15:00:24;20.30;99.90
17774;DHT22;9011;33.236;-97.118;2023-05-02T15:02:52;20.40;99.90
17774;DHT22;9011;33.236;-97.118;2023-05-02T15:05:21;20.60;99.90
17774;DHT22;9011;33.236;-97.118;2023-05-02T15:07:51;20.70;99.90
17774;DHT22;9011;33.236;-97.118;2023-05-02T15:10:19;20.90;99.90
17774;DHT22;9011;33.236;-97.118;2023-05-02T15:12:48;21.00;99.90
17774;DHT22;9011;33.236;-97.118;2023-05-02T15:15:17;21.10;99.90
17774;DHT22;9011;33.236;-97.118;2023-05-02T15:17:48;21.20;99.90
17774;DHT22;9011;33.236;-97.118;2023-05-02T15:20:19;21.50;99.90
17774;DHT22;9011;33.236;-97.118;2023-05-02T15:22:50;21.50;99.90
17774;DHT22;9011;33.236;-97.118;2023-05-02T15:25:18;21.50;99.90
17774;DHT22;9011;33.236;-97.118;2023-05-02T15:27:47;21.70;99.90
17774;DHT22;9011;33.236;-97.118;2023-05-02T15:30:16;21.90;99.90
17774;DHT22;9011;33.236;-97.118;2023-05-02T15:32:49;21.90;99.90
17774;DHT22;9011;33.236;-97.118;2023-05-02T15:35:21;22.10;99.90
17774;DHT22;9011;33.236;-97.118;2023-05-02T15:37:51;22.20;99.90
17774;DHT22;9011;33.236;-97.118;2023-05-02T15:43:42;22.40;99.90
17774;DHT22;9011;33.236;-97.118;2023-05-02T15:46:39;22.60;99.90
17774;DHT22;9011;33.236;-97.118;2023-05-02T15:49:21;22.80;99.90
17774;DHT22;9011;33.236;-97.118;2023-05-02T15:51:57;22.90;99.90
17774;DHT22;9011;33.236;-97.118;2023-05-02T15:54:27;23.00;98.60
17774;DHT22;9011;33.236;-97.118;2023-05-02T15:56:57;23.10;98.50
17774;DHT22;9011;33.236;-97.118;2023-05-02T15:59:27;23.30;98.80
17774;DHT22;9011;33.236;-97.118;2023-05-02T16:01:56;23.30;98.00
17774;DHT22;9011;33.236;-97.118;2023-05-02T16:04:27;23.50;97.90
17774;DHT22;9011;33.236;-97.118;2023-05-02T16:06:57;23.60;98.30
17774;DHT22;9011;33.236;-97.118;2023-05-02T16:09:30;23.60;96.30
17774;DHT22;9011;33.236;-97.118;2023-05-02T16:11:58;23.90;97.60
17774;DHT22;9011;33.236;-97.118;2023-05-02T16:14:29;24.00;96.80
17774;DHT22;9011;33.236;-97.118;2023-05-02T16:16:58;24.00;97.20
17774;DHT22;9011;33.236;-97.118;2023-05-02T16:19:26;24.00;97.10
17774;DHT22;9011;33.236;-97.118;2023-05-02T16:21:59;24.10;96.40
17774;DHT22;9011;33.236;-97.118;2023-05-02T16:24:36;24.10;95.50
17774;DHT22;9011;33.236;-97.118;2023-05-02T16:27:06;24.30;96.90
17774;DHT22;9011;33.236;-97.118;2023-05-02T16:29:35;24.50;96.40
17774;DHT22;9011;33.236;-97.118;2023-05-02T16:32:07;24.60;96.10
17774;DHT22;9011;33.236;-97.118;2023-05-02T16:34:36;24.70;97.00
17774;DHT22;9011;33.236;-97.118;2023-05-02T16:37:04;24.70;95.80
17774;DHT22;9011;33.236;-97.118;2023-05-02T16:39:34;24.80;94.90
17774;DHT22;9011;33.236;-97.118;2023-05-02T16:42:06;25.00;96.20
17774;DHT22;9011;33.236;-97.118;2023-05-02T16:44:36;25.20;95.20
17774;DHT22;9011;33.236;-97.118;2023-05-02T16:47:08;25.40;96.90
17774;DHT22;9011;33.236;-97.118;2023-05-02T16:49:37;25.60;95.20
17774;DHT22;9011;33.236;-97.118;2023-05-02T16:52:12;25.50;94.80
17774;DHT22;9011;33.236;-97.118;2023-05-02T16:54:46;25.60;94.70
17774;DHT22;9011;33.236;-97.118;2023-05-02T16:57:15;25.70;95.10